sensor_id;sensor_type;location;lat;lon;timestamp;pressure;altitude;pressure_sealevel;temperature;humidity
68169;BME280;54981;50.206;15.978;2022-10-31T00:01:15;99282.25;;;8.65;100.00
68169;BME280;54981;50.206;15.978;2022-10-31T00:03:42;99280.28;;;8.70;100.00
68169;BME280;54981;50.206;15.978;2022-10-31T00:06:07;99283.81;;;8.71;100.00
68169;BME280;54981;50.206;15.978;2022-10-31T00:08:32;99296.53;;;8.63;100.00
68169;BME280;54981;50.206;15.978;2022-10-31T00:10:58;99287.16;;;8.54;100.00
68169;BME280;54981;50.206;15.978;2022-10-31T00:13:23;99283.56;;;8.55;100.00
68169;BME280;54981;50.206;15.978;2022-10-31T00:15:48;99277.66;;;8.48;100.00
68169;BME280;54981;50.206;15.978;2022-10-31T00:18:14;99282.09;;;8.48;100.00
68169;BME280;54981;50.206;15.978;2022-10-31T00:20:39;99278.63;;;8.46;100.00
68169;BME280;54981;50.206;15.978;2022-10-31T00:23:06;99280.50;;;8.44;100.00
68169;BME280;54981;50.206;15.978;2022-10-31T00:25:39;99287.75;;;8.39;100.00
68169;BME280;54981;50.206;15.978;2022-10-31T00:28:06;99288.59;;;8.41;100.00
68169;BME280;54981;50.206;15.978;2022-10-31T00:30:31;99292.00;;;8.44;100.00
68169;BME280;54981;50.206;15.978;2022-10-31T00:32:57;99283.94;;;8.46;100.00
68169;BME280;54981;50.206;15.978;2022-10-31T00:35:22;99286.59;;;8.46;100.00
68169;BME280;54981;50.206;15.978;2022-10-31T00:37:47;99299.06;;;8.44;100.00
68169;BME280;54981;50.206;15.978;2022-10-31T00:40:13;99291.09;;;8.44;100.00
68169;BME280;54981;50.206;15.978;2022-10-31T00:42:39;99292.03;;;8.43;100.00
68169;BME280;54981;50.206;15.978;2022-10-31T00:45:05;99294.91;;;8.37;100.00
68169;BME280;54981;50.206;15.978;2022-10-31T00:47:30;99298.72;;;8.29;100.00
68169;BME280;54981;50.206;15.978;2022-10-31T00:49:55;99305.78;;;8.30;100.00
68169;BME280;54981;50.206;15.978;2022-10-31T00:52:21;99301.94;;;8.38;100.00
68169;BME280;54981;50.206;15.978;2022-10-31T00:54:46;99305.44;;;8.16;100.00
68169;BME280;54981;50.206;15.978;2022-10-31T00:57:11;99306.44;;;8.14;100.00
68169;BME280;54981;50.206;15.978;2022-10-31T00:59:37;99310.88;;;8.13;100.00
68169;BME280;54981;50.206;15.978;2022-10-31T01:02:02;99312.28;;;8.00;100.00
68169;BME280;54981;50.206;15.978;2022-10-31T01:04:27;99317.69;;;7.97;100.00
68169;BME280;54981;50.206;15.978;2022-10-31T01:06:53;99318.44;;;8.00;100.00
68169;BME280;54981;50.206;15.978;2022-10-31T01:09:18;99317.91;;;7.90;100.00
68169;BME280;54981;50.206;15.978;2022-10-31T01:11:43;99320.31;;;7.75;100.00
68169;BME280;54981;50.206;15.978;2022-10-31T01:14:09;99315.78;;;7.77;100.00
68169;BME280;54981;50.206;15.978;2022-10-31T01:16:34;99316.03;;;7.71;100.00
68169;BME280;54981;50.206;15.978;2022-10-31T01:19:00;99312.53;;;7.70;100.00
68169;BME280;54981;50.206;15.978;2022-10-31T01:21:27;99309.75;;;7.73;100.00
68169;BME280;54981;50.206;15.978;2022-10-31T01:23:53;99306.97;;;7.76;100.00
68169;BME280;54981;50.206;15.978;2022-10-31T01:26:24;99311.38;;;7.77;100.00
68169;BME280;54981;50.206;15.978;2022-10-31T01:28:53;99310.38;;;7.80;100.00
68169;BME280;54981;50.206;15.978;2022-10-31T01:31:21;99315.63;;;7.81;100.00
68169;BME280;54981;50.206;15.978;2022-10-31T01:33:47;99321.81;;;7.82;100.00
68169;BME280;54981;50.206;15.978;2022-10-31T01:36:26;99323.47;;;7.84;100.00
68169;BME280;54981;50.206;15.978;2022-10-31T01:38:53;99314.72;;;7.82;100.00
68169;BME280;54981;50.206;15.978;2022-10-31T01:41:22;99315.75;;;7.78;100.00
68169;BME280;54981;50.206;15.978;2022-10-31T01:46:27;99309.09;;;7.90;100.00
68169;BME280;54981;50.206;15.978;2022-10-31T01:48:55;99304.53;;;7.94;100.00
68169;BME280;54981;50.206;15.978;2022-10-31T01:51:27;99308.94;;;7.95;100.00
68169;BME280;54981;50.206;15.978;2022-10-31T01:53:56;99310.66;;;7.96;100.00
68169;BME280;54981;50.206;15.978;2022-10-31T01:56:23;99303.63;;;7.95;100.00
68169;BME280;54981;50.206;15.978;2022-10-31T01:58:49;99306.25;;;7.96;100.00
68169;BME280;54981;50.206;15.978;2022-10-31T02:01:16;99315.94;;;7.96;100.00
68169;BME280;54981;50.206;15.978;2022-10-31T02:03:42;99312.69;;;7.89;100.00
68169;BME280;54981;50.206;15.978;2022-10-31T02:06:13;99311.81;;;7.88;100.00
68169;BME280;54981;50.206;15.978;2022-10-31T02:08:43;99311.25;;;7.80;100.00
68169;BME280;54981;50.206;15.978;2022-10-31T02:11:09;99311.25;;;7.80;100.00
68169;BME280;54981;50.206;15.978;2022-10-31T02:13:34;99311.97;;;7.84;100.00
68169;BME280;54981;50.206;15.978;2022-10-31T02:16:00;99310.31;;;7.81;100.00
68169;BME280;54981;50.206;15.978;2022-10-31T02:18:29;99308.03;;;7.72;100.00
68169;BME280;54981;50.206;15.978;2022-10-31T02:24:12;99301.22;;;7.65;100.00
68169;BME280;54981;50.206;15.978;2022-10-31T02:26:53;99307.31;;;7.67;100.00
68169;BME280;54981;50.206;15.978;2022-10-31T02:32:20;99294.31;;;7.61;100.00
68169;BME280;54981;50.206;15.978;2022-10-31T02:35:17;99295.16;;;7.61;100.00
68169;BME280;54981;50.206;15.978;2022-10-31T02:40:39;99291.81;;;7.56;100.00
68169;BME280;54981;50.206;15.978;2022-10-31T02:43:22;99297.25;;;7.28;100.00
68169;BME280;54981;50.206;15.978;2022-10-31T02:48:26;99297.94;;;7.10;100.00
68169;BME280;54981;50.206;15.978;2022-10-31T02:50:56;99294.22;;;7.14;100.00
68169;BME280;54981;50.206;15.978;2022-10-31T02:53:23;99289.63;;;7.19;100.00
68169;BME280;54981;50.206;15.978;2022-10-31T02:55:58;99289.63;;;7.19;100.00
68169;BME280;54981;50.206;15.978;2022-10-31T02:58:26;99295.22;;;7.36;100.00
68169;BME280;54981;50.206;15.978;2022-10-31T03:01:15;99288.69;;;7.45;100.00
68169;BME280;54981;50.206;15.978;2022-10-31T03:06:51;99304.66;;;6.93;100.00
68169;BME280;54981;50.206;15.978;2022-10-31T03:09:25;99301.91;;;6.96;100.00
68169;BME280;54981;50.206;15.978;2022-10-31T03:12:15;99301.72;;;7.02;100.00
68169;BME280;54981;50.206;15.978;2022-10-31T03:14:48;99309.34;;;6.85;100.00
68169;BME280;54981;50.206;15.978;2022-10-31T03:17:27;99303.00;;;6.91;100.00
68169;BME280;54981;50.206;15.978;2022-10-31T03:19:56;99311.53;;;6.99;100.00
68169;BME280;54981;50.206;15.978;2022-10-31T03:22:27;99312.31;;;7.02;100.00
68169;BME280;54981;50.206;15.978;2022-10-31T03:24:54;99311.22;;;7.08;100.00
68169;BME280;54981;50.206;15.978;2022-10-31T03:27:25;99315.50;;;7.12;100.00
68169;BME280;54981;50.206;15.978;2022-10-31T03:29:53;99323.16;;;7.20;100.00
68169;BME280;54981;50.206;15.978;2022-10-31T03:32:35;99327.53;;;7.21;100.00
68169;BME280;54981;50.206;15.978;2022-10-31T03:35:04;99317.69;;;7.24;100.00
68169;BME280;54981;50.206;15.978;2022-10-31T03:37:33;99328.03;;;7.32;100.00
68169;BME280;54981;50.206;15.978;2022-10-31T03:40:00;99329.03;;;7.28;100.00
68169;BME280;54981;50.206;15.978;2022-10-31T03:42:29;99338.63;;;7.32;100.00
68169;BME280;54981;50.206;15.978;2022-10-31T03:45:00;99336.94;;;7.30;100.00
68169;BME280;54981;50.206;15.978;2022-10-31T03:47:27;99345.72;;;7.32;100.00
68169;BME280;54981;50.206;15.978;2022-10-31T03:49:53;99343.34;;;7.24;100.00
68169;BME280;54981;50.206;15.978;2022-10-31T03:55:06;99334.88;;;7.13;100.00
68169;BME280;54981;50.206;15.978;2022-10-31T03:57:39;99333.38;;;7.06;100.00
68169;BME280;54981;50.206;15.978;2022-10-31T04:00:13;99336.91;;;7.04;100.00
68169;BME280;54981;50.206;15.978;2022-10-31T04:03:28;99337.03;;;7.01;100.00
68169;BME280;54981;50.206;15.978;2022-10-31T04:05:28;99344.94;;;7.03;100.00
68169;BME280;54981;50.206;15.978;2022-10-31T04:07:56;99341.47;;;7.01;100.00
68169;BME280;54981;50.206;15.978;2022-10-31T04:10:25;99340.34;;;7.08;100.00
68169;BME280;54981;50.206;15.978;2022-10-31T04:12:56;99344.09;;;7.01;100.00
68169;BME280;54981;50.206;15.978;2022-10-31T04:15:24;99334.44;;;7.00;100.00
68169;BME280;54981;50.206;15.978;2022-10-31T04:17:52;99346.06;;;6.96;100.00
68169;BME280;54981;50.206;15.978;2022-10-31T04:20:29;99343.84;;;6.82;100.00
68169;BME280;54981;50.206;15.978;2022-10-31T04:22:55;99343.91;;;6.80;100.00
68169;BME280;54981;50.206;15.978;2022-10-31T04:25:20;99352.31;;;6.67;100.00
68169;BME280;54981;50.206;15.978;2022-10-31T04:27:45;99353.91;;;6.71;100.00
68169;BME280;54981;50.206;15.978;2022-10-31T04:30:11;99354.88;;;6.68;100.00
68169;BME280;54981;50.206;15.978;2022-10-31T04:32:36;99353.91;;;6.71;100.00
68169;BME280;54981;50.206;15.978;2022-10-31T04:35:01;99350.56;;;6.66;100.00
68169;BME280;54981;50.206;15.978;2022-10-31T04:37:27;99358.22;;;6.75;100.00
68169;BME280;54981;50.206;15.978;2022-10-31T04:39:52;99362.28;;;6.85;100.00
68169;BME280;54981;50.206;15.978;2022-10-31T04:42:17;99357.31;;;6.76;100.00
68169;BME280;54981;50.206;15.978;2022-10-31T04:44:43;99367.16;;;6.71;100.00
68169;BME280;54981;50.206;15.978;2022-10-31T04:47:08;99359.19;;;6.72;100.00
68169;BME280;54981;50.206;15.978;2022-10-31T04:49:34;99360.03;;;6.73;100.00
68169;BME280;54981;50.206;15.978;2022-10-31T04:51:59;99358.22;;;6.75;100.00
68169;BME280;54981;50.206;15.978;2022-10-31T04:54:24;99359.97;;;6.76;100.00
68169;BME280;54981;50.206;15.978;2022-10-31T04:56:50;99359.13;;;6.74;100.00
68169;BME280;54981;50.206;15.978;2022-10-31T04:59:15;99360.31;;;6.64;100.00
68169;BME280;54981;50.206;15.978;2022-10-31T05:01:41;99352.38;;;6.64;100.00
68169;BME280;54981;50.206;15.978;2022-10-31T05:04:06;99361.44;;;6.56;100.00
68169;BME280;54981;50.206;15.978;2022-10-31T05:06:31;99363.47;;;6.48;100.00
68169;BME280;54981;50.206;15.978;2022-10-31T05:08:56;99368.31;;;6.34;100.00
68169;BME280;54981;50.206;15.978;2022-10-31T05:11:22;99365.00;;;6.27;100.00
68169;BME280;54981;50.206;15.978;2022-10-31T05:13:47;99365.06;;;6.26;100.00
68169;BME280;54981;50.206;15.978;2022-10-31T05:16:12;99366.81;;;6.25;100.00
68169;BME280;54981;50.206;15.978;2022-10-31T05:18:38;99365.97;;;6.25;100.00
68169;BME280;54981;50.206;15.978;2022-10-31T05:21:03;99360.78;;;6.22;100.00
68169;BME280;54981;50.206;15.978;2022-10-31T05:23:29;99364.28;;;6.22;100.00
68169;BME280;54981;50.206;15.978;2022-10-31T05:25:54;99360.41;;;6.34;100.00
68169;BME280;54981;50.206;15.978;2022-10-31T05:28:19;99361.47;;;6.28;100.00
68169;BME280;54981;50.206;15.978;2022-10-31T05:30:44;99366.63;;;6.33;100.00
68169;BME280;54981;50.206;15.978;2022-10-31T05:33:10;99368.53;;;6.28;100.00
68169;BME280;54981;50.206;15.978;2022-10-31T05:35:35;99365.06;;;6.26;100.00
68169;BME280;54981;50.206;15.978;2022-10-31T05:38:01;99352.72;;;6.26;100.00
68169;BME280;54981;50.206;15.978;2022-10-31T05:40:27;99361.53;;;6.25;100.00
68169;BME280;54981;50.206;15.978;2022-10-31T05:42:54;99367.16;;;6.14;100.00
68169;BME280;54981;50.206;15.978;2022-10-31T05:45:21;99369.63;;;6.21;100.00
68169;BME280;54981;50.206;15.978;2022-10-31T05:47:55;99372.28;;;6.21;100.00
68169;BME280;54981;50.206;15.978;2022-10-31T05:50:21;99374.75;;;6.25;100.00
68169;BME280;54981;50.206;15.978;2022-10-31T05:52:47;99382.56;;;6.30;100.00
68169;BME280;54981;50.206;15.978;2022-10-31T05:55:13;99381.44;;;6.37;100.00
68169;BME280;54981;50.206;15.978;2022-10-31T05:57:38;99387.69;;;6.34;100.00
68169;BME280;54981;50.206;15.978;2022-10-31T06:00:04;99392.91;;;6.37;100.00
68169;BME280;54981;50.206;15.978;2022-10-31T06:02:30;99385.13;;;6.33;100.00
68169;BME280;54981;50.206;15.978;2022-10-31T06:05:00;99393.00;;;6.34;100.00
68169;BME280;54981;50.206;15.978;2022-10-31T06:07:25;99392.91;;;6.37;100.00
68169;BME280;54981;50.206;15.978;2022-10-31T06:09:50;99395.56;;;6.37;100.00
68169;BME280;54981;50.206;15.978;2022-10-31T06:12:16;99396.28;;;6.43;100.00
68169;BME280;54981;50.206;15.978;2022-10-31T06:14:41;99399.69;;;6.46;100.00
68169;BME280;54981;50.206;15.978;2022-10-31T06:17:06;99397.16;;;6.43;100.00
68169;BME280;54981;50.206;15.978;2022-10-31T06:19:31;99400.75;;;6.40;100.00
68169;BME280;54981;50.206;15.978;2022-10-31T06:21:57;99402.41;;;6.45;100.00
68169;BME280;54981;50.206;15.978;2022-10-31T06:24:22;99412.91;;;6.46;100.00
68169;BME280;54981;50.206;15.978;2022-10-31T06:26:47;99412.06;;;6.46;100.00
68169;BME280;54981;50.206;15.978;2022-10-31T06:29:13;99418.31;;;6.43;100.00
68169;BME280;54981;50.206;15.978;2022-10-31T06:31:38;99414.84;;;6.41;100.00
68169;BME280;54981;50.206;15.978;2022-10-31T06:34:03;99424.41;;;6.45;100.00
68169;BME280;54981;50.206;15.978;2022-10-31T06:36:29;99427.94;;;6.46;100.00
68169;BME280;54981;50.206;15.978;2022-10-31T06:38:54;99426.00;;;6.51;100.00
68169;BME280;54981;50.206;15.978;2022-10-31T06:41:19;99426.59;;;6.60;100.00
68169;BME280;54981;50.206;15.978;2022-10-31T06:43:47;99431.59;;;6.70;100.00
68169;BME280;54981;50.206;15.978;2022-10-31T06:46:13;99431.19;;;6.82;100.00
68169;BME280;54981;50.206;15.978;2022-10-31T06:48:40;99432.69;;;6.91;100.00
68169;BME280;54981;50.206;15.978;2022-10-31T06:51:06;99433.41;;;6.96;100.00
68169;BME280;54981;50.206;15.978;2022-10-31T06:53:31;99435.06;;;7.00;100.00
68169;BME280;54981;50.206;15.978;2022-10-31T06:55:57;99436.25;;;6.90;100.00
68169;BME280;54981;50.206;15.978;2022-10-31T06:58:22;99438.88;;;6.90;100.00
68169;BME280;54981;50.206;15.978;2022-10-31T07:00:48;99436.50;;;6.82;100.00
68169;BME280;54981;50.206;15.978;2022-10-31T07:03:14;99435.28;;;6.92;100.00
68169;BME280;54981;50.206;15.978;2022-10-31T07:05:41;99449.97;;;7.02;100.00
68169;BME280;54981;50.206;15.978;2022-10-31T07:08:08;99452.41;;;7.09;100.00
68169;BME280;54981;50.206;15.978;2022-10-31T07:10:35;99453.03;;;7.17;100.00
68169;BME280;54981;50.206;15.978;2022-10-31T07:13:03;99447.41;;;7.26;100.00
68169;BME280;54981;50.206;15.978;2022-10-31T07:15:33;99444.69;;;7.29;100.00
68169;BME280;54981;50.206;15.978;2022-10-31T07:18:00;99453.22;;;7.37;100.00
68169;BME280;54981;50.206;15.978;2022-10-31T07:20:26;99453.75;;;7.49;100.00
68169;BME280;54981;50.206;15.978;2022-10-31T07:22:52;99459.69;;;7.55;100.00
68169;BME280;54981;50.206;15.978;2022-10-31T07:25:17;99460.25;;;7.65;100.00
68169;BME280;54981;50.206;15.978;2022-10-31T07:27:43;99452.28;;;7.65;100.00
68169;BME280;54981;50.206;15.978;2022-10-31T07:30:10;99452.69;;;7.79;100.00
68169;BME280;54981;50.206;15.978;2022-10-31T07:32:40;99452.00;;;7.98;100.00
68169;BME280;54981;50.206;15.978;2022-10-31T07:35:10;99461.34;;;8.08;100.00
68169;BME280;54981;50.206;15.978;2022-10-31T07:37:36;99463.13;;;8.07;100.00
68169;BME280;54981;50.206;15.978;2022-10-31T07:40:03;99465.63;;;8.12;100.00
68169;BME280;54981;50.206;15.978;2022-10-31T07:42:29;99465.50;;;8.15;100.00
68169;BME280;54981;50.206;15.978;2022-10-31T07:44:54;99467.94;;;8.21;100.00
68169;BME280;54981;50.206;15.978;2022-10-31T07:47:19;99451.69;;;8.30;100.00
68169;BME280;54981;50.206;15.978;2022-10-31T07:49:45;99450.31;;;8.44;100.00
68169;BME280;54981;50.206;15.978;2022-10-31T07:52:10;99448.25;;;8.52;100.00
68169;BME280;54981;50.206;15.978;2022-10-31T07:54:36;99459.56;;;8.57;100.00
68169;BME280;54981;50.206;15.978;2022-10-31T07:57:01;99450.25;;;8.69;100.00
68169;BME280;54981;50.206;15.978;2022-10-31T07:59:27;99457.72;;;8.81;100.00
68169;BME280;54981;50.206;15.978;2022-10-31T08:01:52;99458.91;;;8.96;100.00
68169;BME280;54981;50.206;15.978;2022-10-31T08:04:18;99455.09;;;9.03;100.00
68169;BME280;54981;50.206;15.978;2022-10-31T08:06:43;99450.53;;;9.07;100.00
68169;BME280;54981;50.206;15.978;2022-10-31T08:09:08;99456.31;;;9.16;100.00
68169;BME280;54981;50.206;15.978;2022-10-31T08:11:34;99452.50;;;9.24;100.00
68169;BME280;54981;50.206;15.978;2022-10-31T08:13:59;99453.25;;;9.26;100.00
68169;BME280;54981;50.206;15.978;2022-10-31T08:16:24;99446.75;;;9.33;100.00
68169;BME280;54981;50.206;15.978;2022-10-31T08:18:50;99451.56;;;9.45;100.00
68169;BME280;54981;50.206;15.978;2022-10-31T08:21:15;99447.84;;;9.49;100.00
68169;BME280;54981;50.206;15.978;2022-10-31T08:23:40;99447.31;;;9.62;100.00
68169;BME280;54981;50.206;15.978;2022-10-31T08:26:06;99445.22;;;9.70;100.00
68169;BME280;54981;50.206;15.978;2022-10-31T08:28:31;99444.09;;;9.75;100.00
68169;BME280;54981;50.206;15.978;2022-10-31T08:30:57;99443.53;;;9.88;100.00
68169;BME280;54981;50.206;15.978;2022-10-31T08:33:22;99446.94;;;9.91;100.00
68169;BME280;54981;50.206;15.978;2022-10-31T08:35:48;99450.41;;;9.93;100.00
68169;BME280;54981;50.206;15.978;2022-10-31T08:38:13;99446.59;;;9.99;100.00
68169;BME280;54981;50.206;15.978;2022-10-31T08:40:39;99442.59;;;10.09;100.00
68169;BME280;54981;50.206;15.978;2022-10-31T08:43:13;99443.88;;;10.19;100.00
68169;BME280;54981;50.206;15.978;2022-10-31T08:45:40;99440.91;;;10.27;100.00
68169;BME280;54981;50.206;15.978;2022-10-31T08:48:12;99443.44;;;10.30;100.00
68169;BME280;54981;50.206;15.978;2022-10-31T08:50:38;99446.13;;;10.30;100.00
68169;BME280;54981;50.206;15.978;2022-10-31T08:53:24;99438.03;;;10.32;100.00
68169;BME280;54981;50.206;15.978;2022-10-31T08:55:49;99442.38;;;10.34;100.00
68169;BME280;54981;50.206;15.978;2022-10-31T08:58:17;99440.63;;;10.33;100.00
68169;BME280;54981;50.206;15.978;2022-10-31T09:00:44;99444.25;;;10.32;100.00
68169;BME280;54981;50.206;15.978;2022-10-31T09:03:12;99440.22;;;10.42;100.00
68169;BME280;54981;50.206;15.978;2022-10-31T09:05:38;99438.34;;;10.44;100.00
68169;BME280;54981;50.206;15.978;2022-10-31T09:08:05;99431.06;;;10.48;100.00
68169;BME280;54981;50.206;15.978;2022-10-31T09:10:32;99436.19;;;10.53;100.00
68169;BME280;54981;50.206;15.978;2022-10-31T09:13:11;99431.50;;;10.58;100.00
68169;BME280;54981;50.206;15.978;2022-10-31T09:15:38;99432.16;;;10.63;100.00
68169;BME280;54981;50.206;15.978;2022-10-31T09:18:05;99436.56;;;10.64;100.00
68169;BME280;54981;50.206;15.978;2022-10-31T09:20:33;99442.47;;;10.71;100.00
68169;BME280;54981;50.206;15.978;2022-10-31T09:23:04;99438.84;;;10.72;100.00
68169;BME280;54981;50.206;15.978;2022-10-31T09:25:29;99437.50;;;10.44;100.00
68169;BME280;54981;50.206;15.978;2022-10-31T09:27:56;99431.59;;;10.17;100.00
68169;BME280;54981;50.206;15.978;2022-10-31T09:30:22;99438.28;;;10.07;100.00
68169;BME280;54981;50.206;15.978;2022-10-31T09:32:48;99444.59;;;10.04;100.00
68169;BME280;54981;50.206;15.978;2022-10-31T09:35:13;99448.41;;;9.98;100.00
68169;BME280;54981;50.206;15.978;2022-10-31T09:37:38;99441.94;;;10.04;100.00
68169;BME280;54981;50.206;15.978;2022-10-31T09:40:04;99447.47;;;9.99;100.00
68169;BME280;54981;50.206;15.978;2022-10-31T09:42:45;99441.72;;;10.09;100.00
68169;BME280;54981;50.206;15.978;2022-10-31T09:45:29;99438.13;;;10.10;100.00
68169;BME280;54981;50.206;15.978;2022-10-31T09:50:28;99438.50;;;10.21;100.00
68169;BME280;54981;50.206;15.978;2022-10-31T09:53:07;99437.34;;;10.28;100.00
68169;BME280;54981;50.206;15.978;2022-10-31T09:55:39;99438.13;;;10.30;100.00
68169;BME280;54981;50.206;15.978;2022-10-31T09:58:10;99441.38;;;10.37;100.00
68169;BME280;54981;50.206;15.978;2022-10-31T10:00:39;99434.16;;;10.39;100.00
68169;BME280;54981;50.206;15.978;2022-10-31T10:05:44;99438.00;;;10.52;100.00
68169;BME280;54981;50.206;15.978;2022-10-31T10:08:25;99430.22;;;10.66;100.00
68169;BME280;54981;50.206;15.978;2022-10-31T10:16:37;99422.72;;;10.56;100.00
68169;BME280;54981;50.206;15.978;2022-10-31T10:30:20;99421.63;;;10.98;100.00
68169;BME280;54981;50.206;15.978;2022-10-31T10:37:44;99416.56;;;10.92;100.00
68169;BME280;54981;50.206;15.978;2022-10-31T10:40:21;99416.56;;;10.92;100.00
68169;BME280;54981;50.206;15.978;2022-10-31T10:43:29;99414.06;;;10.88;100.00
68169;BME280;54981;50.206;15.978;2022-10-31T10:46:19;99412.47;;;10.84;100.00
68169;BME280;54981;50.206;15.978;2022-10-31T10:49:16;99411.56;;;10.85;100.00
68169;BME280;54981;50.206;15.978;2022-10-31T10:51:54;99418.59;;;10.86;100.00
68169;BME280;54981;50.206;15.978;2022-10-31T10:59:55;99409.25;;;10.97;100.00
68169;BME280;54981;50.206;15.978;2022-10-31T11:02:25;99408.22;;;10.99;100.00
68169;BME280;54981;50.206;15.978;2022-10-31T11:04:58;99406.81;;;10.92;100.00
68169;BME280;54981;50.206;15.978;2022-10-31T11:07:24;99397.69;;;10.96;100.00
68169;BME280;54981;50.206;15.978;2022-10-31T11:09:50;99402.19;;;10.77;100.00
68169;BME280;54981;50.206;15.978;2022-10-31T11:14:53;99406.19;;;10.68;100.00
68169;BME280;54981;50.206;15.978;2022-10-31T11:17:41;99406.59;;;10.78;100.00
68169;BME280;54981;50.206;15.978;2022-10-31T11:22:39;99405.44;;;10.83;100.00
68169;BME280;54981;50.206;15.978;2022-10-31T11:25:37;99401.09;;;11.00;100.00
68169;BME280;54981;50.206;15.978;2022-10-31T11:28:09;99397.97;;;11.09;100.00
68169;BME280;54981;50.206;15.978;2022-10-31T11:33:30;99404.44;;;11.03;100.00
68169;BME280;54981;50.206;15.978;2022-10-31T11:35:57;99402.22;;;10.94;100.00
68169;BME280;54981;50.206;15.978;2022-10-31T11:38:26;99402.63;;;10.86;100.00
68169;BME280;54981;50.206;15.978;2022-10-31T11:41:03;99401.59;;;10.89;100.00
68169;BME280;54981;50.206;15.978;2022-10-31T11:43:30;99396.44;;;11.03;100.00
68169;BME280;54981;50.206;15.978;2022-10-31T11:45:56;99389.03;;;11.10;100.00
68169;BME280;54981;50.206;15.978;2022-10-31T11:48:23;99391.78;;;11.26;100.00
68169;BME280;54981;50.206;15.978;2022-10-31T11:50:55;99384.72;;;11.42;100.00
68169;BME280;54981;50.206;15.978;2022-10-31T11:53:29;99377.75;;;11.57;100.00
68169;BME280;54981;50.206;15.978;2022-10-31T11:56:03;99378.03;;;11.68;100.00
68169;BME280;54981;50.206;15.978;2022-10-31T11:58:29;99378.81;;;11.70;100.00
68169;BME280;54981;50.206;15.978;2022-10-31T12:00:56;99375.84;;;11.77;100.00
68169;BME280;54981;50.206;15.978;2022-10-31T12:05:51;99378.44;;;11.61;100.00
68169;BME280;54981;50.206;15.978;2022-10-31T12:08:18;99370.19;;;11.65;100.00
68169;BME280;54981;50.206;15.978;2022-10-31T12:16:25;99362.88;;;11.86;100.00
68169;BME280;54981;50.206;15.978;2022-10-31T12:21:31;99363.94;;;11.49;100.00
68169;BME280;54981;50.206;15.978;2022-10-31T12:34:44;99354.25;;;11.64;100.00
68169;BME280;54981;50.206;15.978;2022-10-31T12:50:34;99327.63;;;11.46;100.00
68169;BME280;54981;50.206;15.978;2022-10-31T12:53:13;99320.97;;;11.55;100.00
68169;BME280;54981;50.206;15.978;2022-10-31T12:56:05;99318.47;;;11.52;100.00
68169;BME280;54981;50.206;15.978;2022-10-31T12:58:42;99320.63;;;11.61;100.00
68169;BME280;54981;50.206;15.978;2022-10-31T13:01:39;99322.72;;;11.72;100.00
68169;BME280;54981;50.206;15.978;2022-10-31T13:06:50;99322.63;;;11.73;100.00
68169;BME280;54981;50.206;15.978;2022-10-31T13:12:19;99325.75;;;11.82;100.00
68169;BME280;54981;50.206;15.978;2022-10-31T13:14:53;99321.22;;;11.84;100.00
68169;BME280;54981;50.206;15.978;2022-10-31T13:17:38;99321.44;;;11.97;100.00
68169;BME280;54981;50.206;15.978;2022-10-31T13:20:46;99312.13;;;12.04;100.00
68169;BME280;54981;50.206;15.978;2022-10-31T13:23:13;99304.75;;;11.93;100.00
68169;BME280;54981;50.206;15.978;2022-10-31T13:25:46;99308.34;;;11.92;100.00
68169;BME280;54981;50.206;15.978;2022-10-31T13:28:34;99303.94;;;11.91;100.00
68169;BME280;54981;50.206;15.978;2022-10-31T13:31:01;99297.66;;;11.92;100.00
68169;BME280;54981;50.206;15.978;2022-10-31T13:33:34;99295.78;;;11.94;100.00
68169;BME280;54981;50.206;15.978;2022-10-31T13:36:06;99292.34;;;12.08;100.00
68169;BME280;54981;50.206;15.978;2022-10-31T13:38:46;99281.84;;;12.21;100.00
68169;BME280;54981;50.206;15.978;2022-10-31T13:46:25;99266.00;;;12.18;100.00
68169;BME280;54981;50.206;15.978;2022-10-31T13:48:51;99264.84;;;12.22;100.00
68169;BME280;54981;50.206;15.978;2022-10-31T13:51:25;99267.13;;;12.13;100.00
68169;BME280;54981;50.206;15.978;2022-10-31T13:53:59;99256.00;;;12.21;100.00
68169;BME280;54981;50.206;15.978;2022-10-31T13:56:28;99265.63;;;12.24;100.00
68169;BME280;54981;50.206;15.978;2022-10-31T13:59:00;99266.53;;;12.24;100.00
68169;BME280;54981;50.206;15.978;2022-10-31T14:01:26;99261.00;;;12.11;100.00
68169;BME280;54981;50.206;15.978;2022-10-31T14:04:04;99259.09;;;12.13;100.00
68169;BME280;54981;50.206;15.978;2022-10-31T14:09:22;99254.47;;;12.17;100.00
68169;BME280;54981;50.206;15.978;2022-10-31T14:11:49;99266.53;;;12.24;100.00
68169;BME280;54981;50.206;15.978;2022-10-31T14:14:16;99265.81;;;12.36;100.00
68169;BME280;54981;50.206;15.978;2022-10-31T14:16:44;99270.28;;;12.36;100.00
68169;BME280;54981;50.206;15.978;2022-10-31T14:19:16;99264.78;;;12.39;100.00
68169;BME280;54981;50.206;15.978;2022-10-31T14:21:45;99272.63;;;12.42;100.00
68169;BME280;54981;50.206;15.978;2022-10-31T14:29:51;99262.56;;;12.31;100.00
68169;BME280;54981;50.206;15.978;2022-10-31T14:32:24;99260.75;;;12.32;100.00
68169;BME280;54981;50.206;15.978;2022-10-31T14:34:52;99264.72;;;12.25;100.00
68169;BME280;54981;50.206;15.978;2022-10-31T14:50:59;99252.22;;;11.93;100.00
68169;BME280;54981;50.206;15.978;2022-10-31T14:53:32;99248.22;;;11.85;100.00
68169;BME280;54981;50.206;15.978;2022-10-31T14:55:59;99250.47;;;11.77;100.00
68169;BME280;54981;50.206;15.978;2022-10-31T14:58:30;99246.81;;;11.78;100.00
68169;BME280;54981;50.206;15.978;2022-10-31T15:00:58;99243.97;;;11.81;100.00
68169;BME280;54981;50.206;15.978;2022-10-31T15:03:36;99238.03;;;11.76;100.00